createdAt,value
2023-10-17T00:07:09.613Z,2.45
2023-10-17T00:17:17.356Z,2.67
2023-10-17T00:27:20.225Z,1.33
2023-10-17T00:37:24.916Z,1.63
2023-10-17T00:47:28.617Z,2.03
2023-10-17T00:57:32.820Z,2.41
2023-10-17T01:07:35.720Z,2.35
2023-10-17T01:17:39.214Z,2.64
2023-10-17T01:27:42.397Z,2.02
2023-10-17T01:37:44.903Z,2.17
2023-10-17T01:47:47.446Z,2.57
2023-10-17T01:57:55.223Z,2.34
2023-10-17T02:07:59.996Z,2.35
2023-10-17T02:18:13.409Z,2.45
2023-10-17T02:28:15.968Z,1.71
2023-10-17T02:38:18.755Z,1.88
2023-10-17T02:48:27.638Z,2.29
2023-10-17T02:58:31.411Z,2.31
2023-10-17T03:08:37.919Z,2.13
2023-10-17T03:18:51.654Z,1.94
2023-10-17T03:28:54.240Z,1.71
2023-10-17T03:39:15.810Z,1.91
2023-10-17T03:49:20.010Z,1.87
2023-10-17T03:59:43.431Z,1.98
2023-10-17T04:09:57.014Z,1.82
2023-10-17T04:20:13.008Z,1.24
2023-10-17T04:30:16.386Z,1.27
2023-10-17T04:40:29.269Z,1.51
2023-10-17T04:50:45.376Z,1.64
2023-10-17T05:01:16.685Z,1.65
2023-10-17T05:11:42.303Z,1.20
2023-10-17T05:22:04.005Z,1.33
2023-10-17T05:32:25.419Z,1.64
2023-10-17T05:42:55.733Z,1.44
2023-10-17T05:53:17.080Z,1.38
2023-10-17T06:03:38.145Z,1.82
2023-10-17T06:13:59.815Z,1.22
2023-10-17T06:24:21.801Z,2.29
2023-10-17T06:34:28.804Z,2.40
2023-10-17T06:44:35.200Z,2.57
2023-10-17T06:54:42.758Z,3.17
2023-10-17T07:04:51.210Z,2.88
2023-10-17T07:15:23.684Z,2.88
2023-10-17T07:25:27.022Z,4.05
2023-10-17T07:35:33.074Z,4.42
2023-10-17T07:45:42.783Z,4.96
2023-10-17T07:55:49.330Z,5.80
2023-10-17T08:06:04.369Z,5.98
2023-10-17T08:16:10.370Z,7.16
2023-10-17T08:26:14.554Z,8.27
2023-10-17T08:36:18.123Z,10.05
2023-10-17T08:46:22.372Z,10.75
2023-10-17T08:56:29.975Z,11.07
2023-10-17T09:06:38.857Z,12.19
2023-10-17T09:16:51.821Z,13.30
2023-10-17T09:26:57.614Z,13.86
2023-10-17T09:37:07.710Z,13.90
2023-10-17T09:47:11.886Z,14.88
2023-10-17T09:58:10.179Z,14.03
2023-10-17T10:08:34.579Z,15.52
2023-10-17T10:18:47.176Z,15.48
2023-10-17T10:28:52.776Z,15.24
2023-10-17T10:39:10.408Z,16.35
2023-10-17T10:49:15.062Z,15.73
2023-10-17T10:59:27.533Z,17.32
2023-10-17T11:09:30.751Z,17.46
2023-10-17T11:19:33.610Z,15.59
2023-10-17T11:29:36.663Z,14.85
2023-10-17T11:39:42.276Z,15.55
2023-10-17T11:49:51.006Z,15.63
2023-10-17T12:00:29.250Z,14.64
2023-10-17T12:10:37.905Z,14.99
2023-10-17T12:20:43.424Z,15.59
2023-10-17T12:30:48.080Z,16.19
2023-10-17T12:40:59.661Z,16.06
2023-10-17T12:51:12.946Z,14.37
2023-10-17T13:01:31.081Z,14.90
2023-10-17T13:11:35.389Z,15.54
2023-10-17T13:21:39.271Z,15.06
2023-10-17T13:31:42.344Z,13.37
2023-10-17T13:41:44.978Z,13.16
2023-10-17T13:51:48.485Z,12.98
2023-10-17T14:01:53.895Z,12.87
2023-10-17T14:23:07.419Z,12.37
2023-10-17T14:33:10.369Z,12.32
2023-10-17T14:43:16.099Z,12.42
2023-10-17T14:53:22.174Z,12.16
2023-10-17T15:03:27.646Z,11.66
2023-10-17T15:13:30.495Z,11.45
2023-10-17T15:23:33.045Z,11.05
2023-10-17T15:33:36.500Z,10.74
2023-10-17T15:43:41.705Z,10.55
2023-10-17T15:53:45.304Z,10.26
2023-10-17T16:03:48.236Z,10.13
2023-10-17T16:13:50.908Z,9.94
2023-10-17T16:23:55.246Z,9.86
2023-10-17T16:33:57.824Z,9.23
2023-10-17T16:44:01.166Z,9.09
2023-10-17T16:54:06.635Z,9.33
2023-10-17T17:04:10.396Z,8.98
2023-10-17T17:14:12.946Z,8.76
2023-10-17T17:24:18.316Z,8.35
2023-10-17T17:34:23.011Z,7.98
2023-10-17T17:44:28.071Z,7.75
2023-10-17T17:54:31.830Z,7.85
2023-10-17T18:04:34.659Z,7.63
2023-10-17T18:14:37.381Z,7.82
2023-10-17T18:24:40.448Z,7.57
2023-10-17T18:34:43.457Z,7.53
2023-10-17T18:44:47.265Z,7.00
2023-10-17T18:54:52.554Z,7.05
2023-10-17T19:04:55.227Z,6.94
2023-10-17T19:14:58.913Z,6.75
2023-10-17T19:25:01.658Z,6.91
2023-10-17T19:35:04.992Z,7.16
2023-10-17T19:45:10.429Z,6.82
2023-10-17T19:55:18.178Z,6.84
2023-10-17T20:05:20.881Z,6.30
2023-10-17T20:15:24.308Z,5.81
2023-10-17T20:25:27.010Z,5.78
2023-10-17T20:35:36.248Z,5.33
2023-10-17T20:45:39.212Z,4.96
2023-10-17T20:55:42.750Z,5.31
2023-10-17T21:05:47.924Z,5.07
2023-10-17T21:15:52.147Z,5.31
2023-10-17T21:26:04.847Z,5.39
2023-10-17T21:36:08.393Z,4.98
2023-10-17T21:46:12.701Z,5.11
2023-10-17T21:56:16.888Z,4.58
2023-10-17T22:06:22.029Z,4.29
2023-10-17T22:16:24.879Z,3.87
2023-10-17T22:26:27.536Z,4.09
2023-10-17T22:36:30.691Z,3.96
2023-10-17T22:46:33.332Z,4.00
2023-10-17T22:56:35.977Z,3.35
2023-10-17T23:06:39.051Z,2.97
2023-10-17T23:16:41.684Z,3.68
2023-10-17T23:26:44.221Z,3.59
2023-10-17T23:36:48.174Z,3.20
2023-10-17T23:46:51.789Z,3.65
2023-10-17T23:56:54.472Z,3.42
